Time;durP1;ratioP1;P1;durP2;ratioP2;P2;SDS_P1;SDS_P2;PMS_P1;PMS_P2;Temp;Humidity;BMP_temperature;BMP_pressure;BME280_temperature;BME280_humidity;BME280_pressure;Samples;Min_cycle;Max_cycle;Signal;HPM_P1;HPM_P2
2022/04/08 00:02:08;;;;;;;6.20;1.63;;;;;;;12.65;50.88;99614.69;5040992;28;20441;-53
2022/04/08 00:04:34;;;;;;;13.13;1.92;;;;;;;12.65;50.49;99621.56;5041274;28;20052;-54
2022/04/08 00:07:00;;;;;;;7.15;1.45;;;;;;;12.65;50.95;99624.13;5042895;28;20083;-56
2022/04/08 00:09:26;;;;;;;11.75;2.72;;;;;;;12.64;50.89;99625.88;5041976;28;20516;-55
2022/04/08 00:11:51;;;;;;;10.93;1.83;;;;;;;12.64;50.83;99625.88;5036441;28;20046;-55
2022/04/08 00:14:18;;;;;;;11.25;1.80;;;;;;;12.65;50.90;99621.56;5035720;28;20017;-55
2022/04/08 00:16:44;;;;;;;11.77;1.70;;;;;;;12.64;50.66;99640.50;5032889;28;20120;-55
2022/04/08 00:19:10;;;;;;;10.20;1.65;;;;;;;12.64;50.59;99643.09;5034326;28;20279;-55
2022/04/08 00:21:36;;;;;;;11.00;1.77;;;;;;;12.63;50.66;99643.97;5033477;28;20013;-54
2022/04/08 00:24:01;;;;;;;11.05;2.00;;;;;;;12.63;50.60;99655.16;5034400;28;20433;-56
2022/04/08 00:26:27;;;;;;;8.98;1.70;;;;;;;12.63;50.56;99654.31;5034810;28;20032;-56
2022/04/08 00:28:52;;;;;;;14.90;1.70;;;;;;;12.63;50.64;99657.75;5035869;28;20047;-55
2022/04/08 00:31:17;;;;;;;8.90;2.05;;;;;;;12.63;50.74;99669.81;5037302;28;20651;-55
2022/04/08 00:33:43;;;;;;;9.88;1.80;;;;;;;12.63;50.65;99670.66;5037062;28;20074;-55
2022/04/08 00:36:08;;;;;;;9.75;1.90;;;;;;;12.63;50.53;99659.47;5037961;28;20021;-56
2022/04/08 00:38:33;;;;;;;8.13;1.88;;;;;;;12.61;50.57;99667.19;5036792;28;20059;-56
2022/04/08 00:40:59;;;;;;;10.75;1.85;;;;;;;12.63;50.89;99675.84;5037740;28;20021;-55
2022/04/08 00:43:35;;;;;;;12.45;1.80;;;;;;;12.64;50.84;99676.69;5038199;28;20354;-54
2022/04/08 00:46:05;;;;;;;8.55;1.50;;;;;;;12.62;50.60;99675.84;5039113;28;20029;-56
2022/04/08 00:48:31;;;;;;;9.68;1.35;;;;;;;12.62;50.58;99676.69;5038867;28;20029;-54
2022/04/08 00:50:57;;;;;;;11.18;1.85;;;;;;;12.62;50.76;99678.41;5040168;28;20094;-55
2022/04/08 00:53:24;;;;;;;9.45;1.90;;;;;;;12.62;50.61;99688.75;5038319;28;20025;-53
2022/04/08 00:55:49;;;;;;;8.57;1.65;;;;;;;12.61;50.66;99687.88;5039369;28;20033;-56
2022/04/08 00:58:15;;;;;;;5.95;1.38;;;;;;;12.61;50.71;99693.03;5039903;28;20025;-55
2022/04/08 01:00:42;;;;;;;11.13;1.88;;;;;;;12.62;50.68;99701.69;5039942;28;20032;-56
2022/04/08 01:03:08;;;;;;;9.90;1.98;;;;;;;12.62;50.52;99706.84;5039604;28;20449;-55
2022/04/08 01:05:33;;;;;;;7.80;1.77;;;;;;;12.61;50.50;99707.72;5040316;28;20063;-55
2022/04/08 01:07:59;;;;;;;11.38;2.05;;;;;;;12.61;50.70;99713.72;5041414;28;20020;-55
2022/04/08 01:10:24;;;;;;;8.73;1.70;;;;;;;12.61;50.69;99721.47;5034777;28;20128;-56
2022/04/08 01:12:50;;;;;;;7.35;1.40;;;;;;;12.62;50.63;99722.38;5033000;28;20464;-55
2022/04/08 01:15:17;;;;;;;6.82;1.65;;;;;;;12.60;50.72;99724.06;5033288;28;20092;-54
2022/04/08 01:17:43;;;;;;;10.25;2.13;;;;;;;12.60;50.76;99727.53;5033534;28;20060;-55
2022/04/08 01:20:09;;;;;;;10.80;1.65;;;;;;;12.58;50.85;99728.38;5034452;28;20435;-55
2022/04/08 01:22:35;;;;;;;8.52;1.80;;;;;;;12.59;50.66;99728.38;5036829;28;20030;-55
2022/04/08 01:25:02;;;;;;;10.40;2.03;;;;;;;12.59;50.46;99735.25;5033904;28;20010;-55
2022/04/08 01:27:28;;;;;;;7.22;1.70;;;;;;;12.60;50.62;99732.69;5034785;28;20021;-55
2022/04/08 01:29:54;;;;;;;9.75;1.52;;;;;;;12.59;50.47;99735.25;5035812;28;20395;-55
2022/04/08 01:32:19;;;;;;;12.10;1.65;;;;;;;12.60;50.56;99743.03;5036763;28;20021;-51
2022/04/08 01:34:45;;;;;;;8.60;2.08;;;;;;;12.60;50.47;99748.22;5036793;28;20071;-56
2022/04/08 01:37:11;;;;;;;7.63;1.40;;;;;;;12.58;50.72;99749.06;5034941;28;20017;-55
2022/04/08 01:39:37;;;;;;;11.32;2.00;;;;;;;12.59;50.73;99749.06;5039696;28;20028;-55
2022/04/08 01:42:03;;;;;;;7.47;1.52;;;;;;;12.58;50.42;99754.22;5042676;28;20021;-56
2022/04/08 01:44:29;;;;;;;7.05;1.35;;;;;;;12.58;50.50;99754.22;5041827;28;20041;-55
2022/04/08 01:46:54;;;;;;;8.80;2.03;;;;;;;12.59;50.54;99750.75;5041505;28;20082;-56
2022/04/08 01:49:19;;;;;;;7.07;1.50;;;;;;;12.59;50.55;99745.59;5043553;28;20034;-56
2022/04/08 01:51:45;;;;;;;7.47;1.70;;;;;;;12.58;50.32;99749.06;5041798;28;20029;-56
2022/04/08 01:54:10;;;;;;;10.77;1.77;;;;;;;12.58;50.45;99757.66;5042907;28;20049;-56
2022/04/08 01:56:35;;;;;;;7.32;1.70;;;;;;;12.58;50.32;99759.41;5043265;28;20120;-56
2022/04/08 01:59:01;;;;;;;6.38;1.60;;;;;;;12.57;50.59;99755.94;5042228;28;20652;-54
2022/04/08 02:01:26;;;;;;;8.55;1.33;;;;;;;12.57;50.58;99761.09;5042877;28;20444;-56
2022/04/08 02:03:52;;;;;;;7.15;1.33;;;;;;;12.57;50.42;99760.25;5044057;28;20056;-54
2022/04/08 02:06:17;;;;;;;9.63;2.03;;;;;;;12.57;50.44;99768.00;5044281;28;20025;-55
2022/04/08 02:08:42;;;;;;;6.88;1.40;;;;;;;12.56;50.39;99764.53;5044606;28;20025;-54
2022/04/08 02:11:08;;;;;;;9.90;1.65;;;;;;;12.56;50.23;99771.44;5038094;28;20052;-55
2022/04/08 02:13:33;;;;;;;6.53;1.20;;;;;;;12.55;50.43;99769.72;5035862;28;20129;-56
2022/04/08 02:15:59;;;;;;;7.72;1.58;;;;;;;12.56;50.59;99785.22;5032643;28;20029;-56
2022/04/08 02:18:24;;;;;;;9.63;1.83;;;;;;;12.56;50.23;99790.38;5037646;28;20075;-55
2022/04/08 02:20:51;;;;;;;8.30;1.60;;;;;;;12.55;50.57;99791.28;5036725;28;20100;-55
2022/04/08 02:23:17;;;;;;;7.32;1.10;;;;;;;12.55;50.67;99800.72;5035895;28;20533;-54
2022/04/08 02:25:42;;;;;;;4.88;1.00;;;;;;;12.55;50.61;99800.72;5038858;28;20445;-56
2022/04/08 02:28:08;;;;;;;5.70;1.20;;;;;;;12.56;50.47;99794.69;5036284;28;20029;-56
2022/04/08 02:30:33;;;;;;;5.07;1.15;;;;;;;12.55;50.54;99780.94;5041313;28;20117;-55
2022/04/08 02:33:01;;;;;;;7.60;1.30;;;;;;;12.54;50.65;99783.47;5038860;28;20021;-55
2022/04/08 02:35:29;;;;;;;4.25;1.10;;;;;;;12.54;50.43;99788.66;5039840;28;20040;-53
2022/04/08 02:37:54;;;;;;;;;;;;;;;12.65;50.75;99792.16;5039163;28;20357;-55
2022/04/08 02:40:19;;;;;;;6.25;1.45;;;;;;;12.55;50.31;99782.63;5039856;28;19909;-56
2022/04/08 02:42:45;;;;;;;5.32;1.15;;;;;;;12.54;50.50;99788.66;5039630;28;20454;-56
2022/04/08 02:45:10;;;;;;;4.22;1.05;;;;;;;12.52;50.44;99797.28;5040998;28;20029;-56
2022/04/08 02:47:43;;;;;;;6.38;1.30;;;;;;;12.53;50.44;99787.81;5041485;28;20036;-55
2022/04/08 02:50:09;;;;;;;7.03;1.25;;;;;;;12.52;50.16;99796.41;5040591;28;20318;-55
2022/04/08 02:52:35;;;;;;;4.50;1.38;;;;;;;12.52;50.21;99786.94;5041340;28;20029;-55
2022/04/08 02:55:01;;;;;;;6.13;1.50;;;;;;;12.52;50.34;99792.13;5039537;28;20017;-55
2022/04/08 02:57:26;;;;;;;5.93;1.15;;;;;;;12.52;50.32;99797.28;5041732;28;20337;-56
2022/04/08 02:59:53;;;;;;;5.32;1.20;;;;;;;12.52;50.34;99791.25;5042351;28;20501;-53
2022/04/08 03:02:19;;;;;;;3.60;1.10;;;;;;;12.53;50.39;99798.13;5042903;28;20023;-55
2022/04/08 03:04:44;;;;;;;4.60;0.98;;;;;;;12.54;50.49;99796.41;5041539;28;20029;-55
2022/04/08 03:07:10;;;;;;;6.97;1.38;;;;;;;12.54;50.50;99799.00;5043478;28;20326;-55
2022/04/08 03:09:38;;;;;;;6.32;1.40;;;;;;;12.52;50.30;99802.47;5043493;28;20025;-52
2022/04/08 03:12:04;;;;;;;4.28;1.30;;;;;;;12.52;50.27;99799.00;5038590;28;20059;-55
2022/04/08 03:14:31;;;;;;;6.03;1.30;;;;;;;12.53;50.23;99803.31;5033586;28;20021;-55
2022/04/08 03:16:57;;;;;;;8.23;1.58;;;;;;;12.52;50.42;99807.63;5036910;28;20025;-56
2022/04/08 03:19:22;;;;;;;6.68;1.30;;;;;;;12.52;50.35;99806.75;5035526;28;20334;-53
2022/04/08 03:21:47;;;;;;;7.38;1.20;;;;;;;12.50;50.21;99795.56;5036546;28;20025;-55
2022/04/08 03:24:13;;;;;;;4.32;1.08;;;;;;;12.50;50.36;99803.31;5036700;28;20018;-55
2022/04/08 03:26:39;;;;;;;6.15;1.15;;;;;;;12.50;50.12;99808.47;5036187;28;20021;-56
2022/04/08 03:29:04;;;;;;;5.53;1.38;;;;;;;12.50;50.43;99813.66;5037462;28;20017;-55
2022/04/08 03:31:30;;;;;;;6.18;1.67;;;;;;;12.50;50.28;99816.22;5036293;28;20040;-55
2022/04/08 03:33:55;;;;;;;8.82;1.60;;;;;;;12.51;50.17;99821.41;5038028;28;20032;-55
2022/04/08 03:36:21;;;;;;;5.43;1.08;;;;;;;12.49;50.05;99817.94;5038210;28;20057;-55
2022/04/08 03:38:46;;;;;;;4.63;1.48;;;;;;;12.50;50.31;99823.97;5038162;28;20024;-55
2022/04/08 03:41:12;;;;;;;5.47;1.17;;;;;;;12.48;50.19;99821.38;5038944;28;20013;-55
2022/04/08 03:43:37;;;;;;;4.22;1.10;;;;;;;12.49;50.03;99828.25;5041446;28;20116;-55
2022/04/08 03:46:03;;;;;;;5.28;0.95;;;;;;;12.49;49.98;99833.44;5040153;28;20033;-53
2022/04/08 03:48:29;;;;;;;6.38;1.40;;;;;;;12.49;50.13;99835.16;5038498;28;20033;-55
2022/04/08 03:50:54;;;;;;;4.82;1.17;;;;;;;12.48;50.06;99836.88;5039680;28;20098;-55
2022/04/08 03:53:20;;;;;;;4.30;0.90;;;;;;;12.48;49.92;99839.44;5039820;28;20075;-56
2022/04/08 03:55:46;;;;;;;6.70;1.45;;;;;;;12.47;50.04;99830.00;5040186;28;20410;-56
2022/04/08 03:58:11;;;;;;;6.15;1.10;;;;;;;12.48;50.19;99836.03;5040802;28;20075;-55
2022/04/08 04:00:40;;;;;;;7.22;1.60;;;;;;;12.47;49.86;99835.16;5040922;28;20350;-55
2022/04/08 04:03:05;;;;;;;5.18;1.13;;;;;;;12.47;50.12;99835.16;5040664;28;20127;-56
2022/04/08 04:05:34;;;;;;;4.70;1.30;;;;;;;12.47;50.05;99842.91;5042082;28;20566;-55
2022/04/08 04:08:00;;;;;;;4.90;1.20;;;;;;;12.47;49.93;99832.59;5041635;28;20017;-55
2022/04/08 04:10:26;;;;;;;3.67;1.20;;;;;;;12.46;49.92;99833.44;5040913;28;20060;-56
2022/04/08 04:12:53;;;;;;;6.72;1.42;;;;;;;12.47;50.06;99831.69;5036199;28;20027;-55
2022/04/08 04:15:19;;;;;;;3.00;0.80;;;;;;;12.47;50.09;99840.34;5032881;28;20053;-53
2022/04/08 04:17:45;;;;;;;6.32;1.17;;;;;;;12.46;50.05;99835.13;5033649;28;20104;-55
2022/04/08 04:20:11;;;;;;;4.55;1.10;;;;;;;12.46;50.02;99832.53;5034871;28;20021;-55
2022/04/08 04:22:37;;;;;;;5.28;1.05;;;;;;;12.44;50.15;99829.97;5036480;28;20468;-55
2022/04/08 04:25:02;;;;;;;4.10;1.00;;;;;;;12.45;49.89;99831.69;5037693;28;20025;-52
2022/04/08 04:27:28;;;;;;;3.67;0.98;;;;;;;12.44;49.70;99829.97;5036033;28;20028;-54
2022/04/08 04:29:53;;;;;;;4.88;1.00;;;;;;;12.45;49.79;99825.69;5033487;28;20025;-53
2022/04/08 04:32:19;;;;;;;6.25;1.25;;;;;;;12.44;49.76;99827.38;5036354;28;20033;-54
2022/04/08 04:34:45;;;;;;;5.25;1.27;;;;;;;12.42;49.87;99831.69;5035767;28;20025;-56
2022/04/08 04:37:11;;;;;;;6.65;1.90;;;;;;;12.43;49.84;99830.81;5037792;28;20060;-56
2022/04/08 04:39:36;;;;;;;5.60;1.20;;;;;;;12.44;49.66;99829.09;5036105;28;20019;-55
2022/04/08 04:42:02;;;;;;;3.35;0.98;;;;;;;12.43;49.90;99825.66;5038376;28;20059;-55
2022/04/08 04:44:28;;;;;;;5.25;1.40;;;;;;;12.43;49.67;99837.72;5039145;28;20044;-53
2022/04/08 04:46:57;;;;;;;4.32;1.40;;;;;;;12.44;49.87;99839.44;5037639;28;20025;-55
2022/04/08 04:49:22;;;;;;;3.75;1.20;;;;;;;12.42;49.62;99831.69;5038686;28;20112;-55
2022/04/08 04:51:49;;;;;;;3.38;1.23;;;;;;;12.42;49.85;99844.63;5037460;28;20104;-54
2022/04/08 04:54:14;;;;;;;4.60;1.20;;;;;;;12.43;49.47;99832.53;5038176;28;20023;-56
2022/04/08 04:56:40;;;;;;;4.90;1.48;;;;;;;12.43;49.66;99842.88;5039956;28;20021;-55
2022/04/08 04:59:05;;;;;;;3.95;1.40;;;;;;;12.42;49.53;99834.28;5039910;28;20629;-56
2022/04/08 05:01:30;;;;;;;5.68;1.30;;;;;;;12.41;49.68;99835.13;5038727;28;20454;-55
2022/04/08 05:03:56;;;;;;;3.53;1.38;;;;;;;12.41;49.47;99829.97;5040763;28;20111;-56
2022/04/08 05:06:21;;;;;;;3.55;0.90;;;;;;;12.41;49.73;99829.97;5041092;28;20412;-56
2022/04/08 05:08:46;;;;;;;3.92;1.20;;;;;;;12.41;49.62;99829.97;5040055;28;20025;-56
2022/04/08 05:11:12;;;;;;;4.47;1.30;;;;;;;12.39;49.61;99829.06;5041217;28;20087;-54
2022/04/08 05:13:37;;;;;;;4.10;1.23;;;;;;;12.39;49.70;99831.66;5029809;28;20401;-56
2022/04/08 05:16:03;;;;;;;5.00;1.35;;;;;;;12.41;49.45;99835.13;5032845;28;20104;-55
2022/04/08 05:18:28;;;;;;;5.30;1.20;;;;;;;12.38;49.54;99835.09;5033388;28;20101;-56
2022/04/08 05:20:54;;;;;;;3.95;1.30;;;;;;;12.39;49.57;99836.81;5028871;28;20028;-52
2022/04/08 05:23:20;;;;;;;4.00;1.20;;;;;;;12.38;49.67;99827.34;5029681;28;20504;-55
2022/04/08 05:25:45;;;;;;;2.92;1.20;;;;;;;12.39;49.28;99834.25;5031066;28;20025;-55
2022/04/08 05:28:12;;;;;;;4.53;1.40;;;;;;;12.38;49.33;99824.75;5032810;28;20013;-55
2022/04/08 05:30:38;;;;;;;2.70;1.00;;;;;;;12.39;49.32;99828.22;5034088;28;20456;-54
2022/04/08 05:33:03;;;;;;;5.55;1.38;;;;;;;12.38;49.70;99829.91;5031453;28;20014;-55
2022/04/08 05:35:28;;;;;;;3.15;1.30;;;;;;;12.39;49.42;99825.63;5029569;28;20025;-55
2022/04/08 05:37:55;;;;;;;4.00;1.10;;;;;;;12.39;49.45;99825.63;5032538;28;20032;-55
2022/04/08 05:40:21;;;;;;;3.80;1.13;;;;;;;12.38;49.41;99814.41;5050717;28;20409;-55
2022/04/08 05:42:50;;;;;;;5.80;1.50;;;;;;;12.37;49.41;99817.88;5033853;28;20029;-55
2022/04/08 05:45:18;;;;;;;3.30;1.25;;;;;;;12.37;49.34;99815.28;5032061;28;20053;-55
2022/04/08 05:47:44;;;;;;;4.03;1.55;;;;;;;12.39;49.54;99825.63;5032726;28;20389;-54
2022/04/08 05:50:11;;;;;;;3.72;1.10;;;;;;;12.38;49.54;99821.31;5034820;28;20017;-55
2022/04/08 05:52:36;;;;;;;6.38;1.40;;;;;;;12.37;49.47;99817.88;5035985;28;20032;-56
2022/04/08 05:55:02;;;;;;;3.92;1.35;;;;;;;12.38;49.24;99814.41;5036779;28;20021;-55
2022/04/08 05:57:33;;;;;;;4.90;1.25;;;;;;;12.36;49.40;99800.66;5037526;28;20071;-55
2022/04/08 05:59:59;;;;;;;3.28;1.20;;;;;;;12.37;49.27;99807.53;5037278;28;20445;-56
2022/04/08 06:02:25;;;;;;;4.70;1.30;;;;;;;12.38;49.48;99803.22;5039860;28;20087;-54
2022/04/08 06:04:50;;;;;;;4.05;1.40;;;;;;;12.38;49.25;99804.09;5039260;28;20449;-53
2022/04/08 06:07:16;;;;;;;2.92;1.38;;;;;;;12.37;49.40;99802.38;5040935;28;20061;-55
2022/04/08 06:09:41;;;;;;;5.97;1.60;;;;;;;12.38;49.24;99803.22;5038877;28;20449;-55
2022/04/08 06:12:07;;;;;;;4.10;1.25;;;;;;;12.37;49.26;99810.13;5030994;28;20065;-55
2022/04/08 06:14:32;;;;;;;3.10;1.23;;;;;;;12.38;49.32;99803.22;5032972;28;20056;-56
2022/04/08 06:16:58;;;;;;;3.55;1.38;;;;;;;12.38;49.26;99808.41;5031210;28;20133;-56
2022/04/08 06:19:23;;;;;;;4.95;1.30;;;;;;;12.37;49.47;99799.78;5033339;28;20044;-56
2022/04/08 06:21:48;;;;;;;2.38;1.10;;;;;;;12.37;49.30;99802.38;5033254;28;20787;-54
2022/04/08 06:24:14;;;;;;;4.63;1.60;;;;;;;12.38;49.10;99804.09;5034250;28;20438;-55
2022/04/08 06:26:39;;;;;;;3.25;1.60;;;;;;;12.37;49.31;99820.47;5037305;28;20028;-55
2022/04/08 06:29:05;;;;;;;5.00;1.83;;;;;;;12.38;49.30;99816.16;5039362;28;20446;-56
2022/04/08 06:31:34;;;;;;;5.05;1.80;;;;;;;12.37;49.15;99812.72;5036877;28;20037;-55
2022/04/08 06:34:00;;;;;;;7.70;2.10;;;;;;;12.36;49.23;99810.97;5038108;28;20028;-55
2022/04/08 06:36:28;;;;;;;4.00;1.67;;;;;;;12.36;49.22;99813.56;5036683;28;20029;-56
2022/04/08 06:38:53;;;;;;;3.67;2.00;;;;;;;12.38;48.97;99808.41;5037304;28;20025;-55
2022/04/08 06:41:19;;;;;;;4.97;1.70;;;;;;;12.37;49.29;99801.50;5038890;28;20353;-55
2022/04/08 06:43:44;;;;;;;8.70;2.08;;;;;;;12.39;49.17;99799.78;5038303;28;20025;-52
2022/04/08 06:46:10;;;;;;;3.30;1.50;;;;;;;12.38;49.38;99791.16;5039501;28;20024;-56
2022/04/08 06:48:35;;;;;;;3.40;1.60;;;;;;;12.38;49.17;99793.75;5037096;28;20025;-54
2022/04/08 06:51:04;;;;;;;4.57;1.58;;;;;;;12.38;49.04;99787.72;5039148;28;20037;-55
2022/04/08 06:53:30;;;;;;;5.53;1.67;;;;;;;12.37;49.22;99792.03;5042229;28;20024;-56
2022/04/08 06:55:55;;;;;;;3.45;1.90;;;;;;;12.37;49.01;99786.00;5040791;28;20107;-55
2022/04/08 06:58:21;;;;;;;4.00;2.00;;;;;;;12.37;49.38;99789.47;5039907;28;20468;-55
2022/04/08 07:00:46;;;;;;;3.17;1.30;;;;;;;12.37;49.40;99786.88;5041395;28;20013;-55
2022/04/08 07:03:11;;;;;;;5.15;1.85;;;;;;;12.39;49.15;99784.28;5041266;28;20472;-54
2022/04/08 07:05:37;;;;;;;3.90;1.50;;;;;;;12.39;49.28;99789.47;5041245;28;20466;-56
2022/04/08 07:08:02;;;;;;;5.97;1.70;;;;;;;12.39;49.04;99789.47;5042503;28;20025;-55
2022/04/08 07:10:28;;;;;;;2.75;1.88;;;;;;;12.37;48.99;99786.88;5040803;28;20057;-55
2022/04/08 07:12:53;;;;;;;3.83;1.70;;;;;;;12.37;49.07;99788.56;5041933;28;20468;-54
2022/04/08 07:15:19;;;;;;;4.15;1.83;;;;;;;12.37;49.11;99792.03;5042501;28;20033;-56
2022/04/08 07:17:44;;;;;;;3.58;1.63;;;;;;;12.38;49.01;99788.56;5043022;28;20084;-54
2022/04/08 07:20:11;;;;;;;3.92;1.75;;;;;;;12.38;49.30;99775.66;5042173;28;20116;-55
2022/04/08 07:22:36;;;;;;;3.38;1.40;;;;;;;12.37;49.29;99781.72;5042531;28;20017;-55
2022/04/08 07:25:01;;;;;;;4.60;1.60;;;;;;;12.38;49.20;99773.06;5033832;28;20105;-56
2022/04/08 07:27:27;;;;;;;3.92;1.67;;;;;;;12.39;49.33;99776.53;5033447;28;20017;-55
2022/04/08 07:29:52;;;;;;;3.53;1.77;;;;;;;12.39;48.77;99779.97;5032214;28;20025;-55
2022/04/08 07:32:20;;;;;;;3.47;1.52;;;;;;;12.39;49.14;99779.13;5029881;28;20048;-55
2022/04/08 07:34:50;;;;;;;5.00;1.50;;;;;;;12.39;48.97;99777.41;5031750;28;20393;-55
2022/04/08 07:37:30;;;;;;;3.95;1.60;;;;;;;12.41;49.04;99778.28;5033189;28;20045;-55
2022/04/08 07:39:57;;;;;;;4.47;1.70;;;;;;;12.39;48.93;99785.16;5036312;28;20021;-55
2022/04/08 07:42:23;;;;;;;3.85;1.65;;;;;;;12.39;49.22;99779.97;5036626;28;20021;-55
2022/04/08 07:44:49;;;;;;;2.65;1.20;;;;;;;12.39;49.32;99769.63;5033522;28;20029;-55
2022/04/08 07:47:15;;;;;;;4.43;1.70;;;;;;;12.39;49.00;99785.16;5033441;28;20024;-55
2022/04/08 07:49:42;;;;;;;3.95;1.50;;;;;;;12.41;49.21;99778.28;5033717;28;20056;-55
2022/04/08 07:52:07;;;;;;;3.83;1.75;;;;;;;12.39;49.02;99779.97;5034136;28;20025;-56
2022/04/08 07:54:33;;;;;;;5.32;1.73;;;;;;;12.40;48.94;99766.22;5038190;28;20074;-55
2022/04/08 07:56:59;;;;;;;3.47;1.50;;;;;;;12.40;49.14;99766.22;5036639;28;20454;-55
2022/04/08 07:59:24;;;;;;;3.25;1.40;;;;;;;12.41;49.07;99761.88;5035548;28;20052;-55
2022/04/08 08:01:50;;;;;;;4.32;1.70;;;;;;;12.40;49.08;99761.03;5036501;28;20059;-56
2022/04/08 08:04:15;;;;;;;2.70;1.42;;;;;;;12.40;48.88;99766.22;5032829;28;20049;-56
2022/04/08 08:06:41;;;;;;;5.43;1.42;;;;;;;12.40;48.97;99766.22;5035947;28;20060;-55
2022/04/08 08:09:06;;;;;;;3.47;1.33;;;;;;;12.41;49.22;99764.47;5034147;28;20037;-55
2022/04/08 08:11:32;;;;;;;3.13;1.30;;;;;;;12.41;49.22;99767.94;5036774;28;20427;-54
2022/04/08 08:13:58;;;;;;;3.42;1.40;;;;;;;12.41;49.27;99761.88;5037761;28;20036;-55
2022/04/08 08:16:23;;;;;;;4.45;1.30;;;;;;;12.41;49.12;99770.53;5036967;28;20465;-55
2022/04/08 08:18:49;;;;;;;4.30;1.33;;;;;;;12.41;49.28;99764.47;5036254;28;20079;-54
2022/04/08 08:21:15;;;;;;;2.53;1.10;;;;;;;12.41;49.29;99759.31;5035856;28;20049;-56
2022/04/08 08:23:41;;;;;;;3.65;1.58;;;;;;;12.41;49.35;99761.88;5034876;28;20413;-54
2022/04/08 08:26:06;;;;;;;4.07;1.60;;;;;;;12.42;49.19;99755.88;5036137;28;20104;-54
2022/04/08 08:28:32;;;;;;;2.75;1.05;;;;;;;12.41;49.36;99757.59;5033823;28;20025;-56
2022/04/08 08:30:57;;;;;;;4.63;1.20;;;;;;;12.42;49.31;99756.75;5036301;28;20116;-54
2022/04/08 08:33:22;;;;;;;3.03;0.98;;;;;;;12.42;49.38;99754.16;5034437;28;20063;-56
2022/04/08 08:35:48;;;;;;;3.20;1.33;;;;;;;12.42;49.14;99743.84;5053060;28;20044;-55
2022/04/08 08:38:13;;;;;;;3.80;1.42;;;;;;;12.43;49.39;99744.69;5035507;28;20053;-55
2022/04/08 08:40:43;;;;;;;4.78;1.30;;;;;;;12.43;49.33;99734.34;5025325;28;20033;-56
2022/04/08 08:43:08;;;;;;;3.35;1.10;;;;;;;12.43;49.52;99737.78;5028198;28;20021;-55
2022/04/08 08:45:34;;;;;;;6.03;1.85;;;;;;;12.44;49.21;99734.34;5025817;28;20032;-53
2022/04/08 08:48:01;;;;;;;5.53;1.70;;;;;;;12.43;49.35;99732.63;5031979;28;20039;-56
2022/04/08 08:50:28;;;;;;;2.92;1.20;;;;;;;12.43;49.20;99727.44;5031418;28;20343;-54
2022/04/08 08:52:54;;;;;;;2.30;1.15;;;;;;;12.44;49.36;99721.44;5031693;28;20052;-55
2022/04/08 08:55:20;;;;;;;4.82;1.40;;;;;;;12.44;49.38;99716.25;5031231;28;20397;-55
2022/04/08 08:57:47;;;;;;;3.22;1.10;;;;;;;12.44;49.20;99705.06;5031151;28;20083;-56
2022/04/08 09:00:16;;;;;;;3.17;1.40;;;;;;;12.45;49.38;99714.56;5032126;28;20016;-54
2022/04/08 09:02:43;;;;;;;3.40;1.42;;;;;;;12.45;49.44;99701.63;5033263;28;20055;-55
2022/04/08 09:05:13;;;;;;;4.68;1.40;;;;;;;12.46;49.55;99703.34;5035065;28;20060;-56
2022/04/08 09:07:38;;;;;;;2.20;0.88;;;;;;;12.45;49.44;99702.50;5034122;28;20024;-53
2022/04/08 09:10:04;;;;;;;5.47;1.40;;;;;;;12.46;49.41;99698.16;5032615;28;20082;-55
2022/04/08 09:12:29;;;;;;;4.47;1.50;;;;;;;12.45;49.54;99693.88;5032894;28;20028;-55
2022/04/08 09:14:59;;;;;;;3.72;1.30;;;;;;;12.46;49.61;99693.88;5034861;28;20124;-55
2022/04/08 09:17:27;;;;;;;1.95;1.17;;;;;;;12.47;49.40;99700.78;5032737;28;20427;-55
2022/04/08 09:19:57;;;;;;;3.90;1.15;;;;;;;12.47;49.49;99698.19;5035454;28;20446;-54
2022/04/08 09:22:36;;;;;;;2.42;1.20;;;;;;;12.48;49.55;99704.22;5038307;28;20450;-54
2022/04/08 09:25:11;;;;;;;5.15;1.15;;;;;;;12.50;49.76;99708.53;5034860;28;20020;-55
2022/04/08 09:27:39;;;;;;;4.90;1.42;;;;;;;12.49;49.83;99698.19;5037110;28;20293;-52
2022/04/08 09:30:04;;;;;;;4.85;1.40;;;;;;;12.51;50.37;99704.22;5035664;28;20013;-55
2022/04/08 09:32:30;;;;;;;4.30;1.52;;;;;;;12.49;50.30;99704.22;5036238;28;20028;-53
2022/04/08 09:34:55;;;;;;;4.70;1.45;;;;;;;12.50;50.60;99700.78;5037727;28;20048;-55
2022/04/08 09:37:21;;;;;;;2.20;0.98;;;;;;;12.51;50.46;99697.34;5039288;28;20488;-55
2022/04/08 09:39:58;;;;;;;6.13;1.30;;;;;;;12.52;50.41;99701.66;5036847;28;20043;-53
2022/04/08 09:42:24;;;;;;;4.45;1.40;;;;;;;12.52;50.73;99698.19;5037880;28;20021;-52
2022/04/08 09:44:51;;;;;;;3.00;1.38;;;;;;;12.51;50.77;99699.03;5039612;28;20133;-56
2022/04/08 09:47:17;;;;;;;2.90;1.20;;;;;;;12.51;50.74;99694.75;5038592;28;20021;-52
2022/04/08 09:49:42;;;;;;;4.82;1.40;;;;;;;12.51;50.94;99694.75;5038812;28;20017;-56
2022/04/08 09:52:09;;;;;;;4.47;1.30;;;;;;;12.50;51.01;99693.03;5039942;28;20357;-55
2022/04/08 09:54:39;;;;;;;5.05;1.30;;;;;;;12.51;50.91;99688.72;5031657;28;20009;-55
2022/04/08 09:57:10;;;;;;;4.25;1.42;;;;;;;12.51;51.06;99688.72;5031065;28;20023;-55
2022/04/08 09:59:36;;;;;;;4.78;1.30;;;;;;;12.52;50.99;99693.03;5033784;28;20164;-54
2022/04/08 10:02:02;;;;;;;3.28;1.23;;;;;;;12.52;51.06;99699.06;5035392;28;20108;-55
2022/04/08 10:04:28;;;;;;;4.00;1.92;;;;;;;12.52;51.16;99683.56;5032814;28;20055;-55
2022/04/08 10:06:55;;;;;;;4.47;1.20;;;;;;;12.53;51.11;99687.00;5042233;28;20032;-55
2022/04/08 10:09:25;;;;;;;3.83;1.58;;;;;;;12.54;51.26;99685.28;5035164;28;20021;-53
2022/04/08 10:12:24;;;;;;;8.10;1.95;;;;;;;12.57;51.35;99686.16;5038462;28;20029;-55
2022/04/08 10:15:03;;;;;;;2.83;1.35;;;;;;;12.56;51.32;99688.75;5035989;28;20389;-53
2022/04/08 10:17:28;;;;;;;3.88;1.20;;;;;;;12.55;51.26;99687.00;5035282;28;20008;-52
2022/04/08 10:19:54;;;;;;;3.78;1.20;;;;;;;12.55;51.23;99684.41;5039110;28;20021;-55
2022/04/08 10:22:20;;;;;;;2.72;0.93;;;;;;;12.55;51.17;99687.88;5035220;28;20021;-54
2022/04/08 10:24:56;;;;;;;4.25;2.03;;;;;;;12.57;51.35;99680.13;5038570;28;20342;-53
2022/04/08 10:27:34;;;;;;;3.78;1.05;;;;;;;12.57;51.40;99678.41;5040869;28;20033;-56
2022/04/08 10:30:00;;;;;;;;;;;;;;;12.67;51.04;99671.53;5036585;28;20033;-55
2022/04/08 10:32:37;;;;;;;3.65;1.50;;;;;;;12.59;51.29;99679.28;5040567;28;19920;-55
2022/04/08 10:35:19;;;;;;;3.20;1.23;;;;;;;12.60;51.41;99674.97;5038765;28;20349;-55
2022/04/08 10:38:06;;;;;;;4.30;1.38;;;;;;;12.59;51.34;99670.63;5040512;28;20036;-55
2022/04/08 10:40:39;;;;;;;5.43;1.48;;;;;;;12.56;51.51;99674.09;5036264;28;20020;-55
2022/04/08 10:43:09;;;;;;;6.10;1.30;;;;;;;12.56;51.40;99662.91;5037832;28;20033;-55
2022/04/08 10:45:36;;;;;;;4.07;1.30;;;;;;;12.56;51.56;99663.75;5037330;28;20013;-55
2022/04/08 10:48:10;;;;;;;6.03;1.63;;;;;;;12.58;51.62;99671.53;5037252;28;20481;-53
2022/04/08 10:50:38;;;;;;;6.75;1.48;;;;;;;12.57;51.45;99672.38;5036220;28;20040;-55
2022/04/08 10:53:19;;;;;;;5.65;1.52;;;;;;;12.56;51.68;99668.06;5039271;28;20029;-56
2022/04/08 10:55:47;;;;;;;5.72;1.60;;;;;;;12.56;51.69;99679.25;5036891;28;20070;-54
2022/04/08 10:58:15;;;;;;;4.95;1.30;;;;;;;12.56;51.71;99675.81;5035858;28;20357;-55
2022/04/08 11:00:40;;;;;;;7.38;1.90;;;;;;;12.55;52.05;99672.38;5031644;28;20021;-55
2022/04/08 11:03:08;;;;;;;2.95;1.30;;;;;;;12.55;51.93;99672.38;5025941;28;20033;-55
2022/04/08 11:05:38;;;;;;;3.88;1.60;;;;;;;12.58;51.85;99671.53;5032135;28;20029;-56
2022/04/08 11:08:05;;;;;;;3.90;1.52;;;;;;;12.57;51.83;99674.97;5026727;28;20783;-55
2022/04/08 11:10:31;;;;;;;3.63;1.45;;;;;;;12.58;51.70;99666.34;5027495;28;20470;-55
2022/04/08 11:12:57;;;;;;;5.22;1.52;;;;;;;12.56;51.79;99656.00;5030867;28;20049;-55
2022/04/08 11:15:24;;;;;;;5.65;1.60;;;;;;;12.58;52.05;99650.84;5036589;28;20033;-55
2022/04/08 11:17:52;;;;;;;4.40;1.35;;;;;;;12.58;51.93;99643.09;5031603;28;20021;-54
2022/04/08 11:20:19;;;;;;;4.30;1.55;;;;;;;12.57;51.88;99643.94;5028938;28;20051;-56
2022/04/08 11:22:49;;;;;;;7.10;1.40;;;;;;;12.59;51.84;99652.53;5028915;28;20017;-54
2022/04/08 11:25:20;;;;;;;4.85;1.50;;;;;;;12.58;52.15;99643.09;5032511;28;20445;-54
2022/04/08 11:27:56;;;;;;;4.72;1.45;;;;;;;12.60;52.09;99638.78;5032889;28;20433;-55
2022/04/08 11:30:21;;;;;;;6.25;1.58;;;;;;;12.60;52.06;99636.19;5036305;28;20013;-53
2022/04/08 11:32:46;;;;;;;3.65;1.40;;;;;;;12.60;52.09;99633.59;5031030;28;20044;-55